Time;durP1;ratioP1;P1;durP2;ratioP2;P2;SDS_P1;SDS_P2;PMS_P1;PMS_P2;Temp;Humidity;BMP_temperature;BMP_pressure;BME280_temperature;BME280_humidity;BME280_pressure;Samples;Min_cycle;Max_cycle;Signal;HPM_P1;HPM_P2
2021/08/29 00:01:38;;;;;;;3.13;2.60;;;14.70;99.90;;;;;;5096235;28;20295;-74
2021/08/29 00:04:05;;;;;;;2.65;2.35;;;14.60;99.90;;;;;;5096232;28;20255;-75
2021/08/29 00:06:32;;;;;;;2.80;2.40;;;14.70;99.90;;;;;;5096178;28;20288;-75
2021/08/29 00:08:59;;;;;;;3.17;2.63;;;14.70;99.90;;;;;;5096384;28;20326;-74
2021/08/29 00:11:26;;;;;;;3.15;2.65;;;14.80;99.90;;;;;;5096104;28;20205;-74
2021/08/29 00:13:53;;;;;;;2.90;2.65;;;14.80;99.90;;;;;;5096037;28;20314;-74
2021/08/29 00:16:21;;;;;;;3.28;2.95;;;14.90;99.90;;;;;;5095516;28;20281;-74
2021/08/29 00:18:47;;;;;;;4.38;2.40;;;14.90;99.90;;;;;;5095956;28;20562;-74
2021/08/29 00:21:14;;;;;;;2.97;2.65;;;15.00;99.90;;;;;;5095985;28;20204;-74
2021/08/29 00:23:41;;;;;;;4.15;2.90;;;15.00;99.90;;;;;;5095554;28;20228;-74
2021/08/29 00:26:08;;;;;;;3.58;2.55;;;15.10;99.90;;;;;;5095491;28;20325;-74
2021/08/29 00:28:35;;;;;;;3.05;2.70;;;15.10;99.90;;;;;;5095724;28;20240;-75
2021/08/29 00:31:02;;;;;;;3.42;2.80;;;15.20;99.90;;;;;;5095935;28;20564;-75
2021/08/29 00:33:30;;;;;;;2.95;2.70;;;15.20;99.90;;;;;;5095618;28;20230;-74
2021/08/29 00:35:57;;;;;;;3.85;3.10;;;15.30;99.90;;;;;;5095356;28;20223;-74
2021/08/29 00:38:24;;;;;;;3.33;2.83;;;15.20;99.90;;;;;;5095556;28;20676;-74
2021/08/29 00:40:51;;;;;;;3.33;3.00;;;15.20;99.90;;;;;;5095337;28;20204;-75
2021/08/29 00:43:19;;;;;;;2.75;2.35;;;15.20;99.90;;;;;;5095253;28;20224;-75
2021/08/29 00:45:47;;;;;;;3.03;2.70;;;15.20;99.90;;;;;;5095260;28;20295;-74
2021/08/29 00:48:15;;;;;;;3.53;2.65;;;15.10;99.90;;;;;;5095148;28;20204;-75
2021/08/29 00:50:44;;;;;;;3.97;2.80;;;15.00;99.90;;;;;;5095303;28;20298;-74
2021/08/29 00:53:12;;;;;;;3.63;2.80;;;14.90;99.90;;;;;;5095175;28;20225;-74
2021/08/29 00:55:39;;;;;;;2.95;2.65;;;14.90;99.90;;;;;;5094992;28;20315;-75
2021/08/29 00:58:06;;;;;;;3.50;2.60;;;15.00;99.90;;;;;;5095119;28;20298;-74
2021/08/29 01:00:34;;;;;;;3.15;2.65;;;15.10;99.90;;;;;;5095118;28;20291;-75
2021/08/29 01:03:02;;;;;;;3.40;2.70;;;15.00;99.90;;;;;;5094942;28;20230;-74
2021/08/29 01:05:30;;;;;;;2.50;2.30;;;15.00;99.90;;;;;;5094503;28;20283;-74
2021/08/29 01:08:02;;;;;;;2.92;2.60;;;15.00;99.90;;;;;;5095034;28;20646;-74
2021/08/29 01:10:34;;;;;;;3.70;2.95;;;15.10;99.90;;;;;;5094855;28;20212;-75
2021/08/29 01:13:01;;;;;;;3.22;2.55;;;15.00;99.90;;;;;;5094910;28;20671;-75
2021/08/29 01:15:31;;;;;;;3.10;2.58;;;15.10;99.90;;;;;;5094583;28;20217;-74
2021/08/29 01:17:59;;;;;;;2.70;2.50;;;15.10;99.90;;;;;;5094657;28;20741;-74
2021/08/29 01:20:32;;;;;;;3.10;2.70;;;15.00;99.90;;;;;;5094780;28;20209;-74
2021/08/29 01:23:02;;;;;;;3.90;3.00;;;15.00;99.90;;;;;;5094526;28;20230;-74
2021/08/29 01:25:34;;;;;;;3.53;2.70;;;15.00;99.90;;;;;;5094936;28;20285;-75
2021/08/29 01:28:14;;;;;;;4.25;3.15;;;15.00;99.90;;;;;;5094644;28;20299;-75
2021/08/29 01:30:43;;;;;;;3.08;2.60;;;15.00;99.90;;;;;;5094478;28;20298;-75
2021/08/29 01:33:11;;;;;;;5.10;3.90;;;15.00;99.90;;;;;;5094277;28;20227;-74
2021/08/29 01:35:39;;;;;;;3.90;2.60;;;15.10;99.90;;;;;;5094266;28;20314;-74
2021/08/29 01:38:08;;;;;;;3.88;3.00;;;15.10;99.90;;;;;;5094436;28;20570;-74
2021/08/29 01:40:36;;;;;;;3.30;2.55;;;15.10;99.90;;;;;;5094290;28;20206;-75
2021/08/29 01:43:04;;;;;;;3.40;3.10;;;15.10;99.90;;;;;;5094165;28;20706;-75
2021/08/29 01:45:32;;;;;;;4.03;2.97;;;15.20;99.90;;;;;;5093870;28;20201;-75
2021/08/29 01:48:01;;;;;;;3.92;3.25;;;15.10;99.90;;;;;;5093927;28;20207;-75
2021/08/29 01:50:28;;;;;;;3.85;3.00;;;15.10;99.90;;;;;;5094258;28;20629;-75
2021/08/29 01:52:55;;;;;;;3.33;2.92;;;15.20;99.90;;;;;;5093897;28;20308;-75
2021/08/29 01:55:22;;;;;;;3.03;2.83;;;15.10;99.90;;;;;;5093916;28;20325;-75
2021/08/29 01:57:49;;;;;;;3.80;3.13;;;15.20;99.90;;;;;;5094109;28;20198;-74
2021/08/29 02:00:16;;;;;;;3.20;2.88;;;15.20;99.90;;;;;;5094118;28;20291;-75
2021/08/29 02:02:43;;;;;;;2.83;2.55;;;15.20;99.90;;;;;;5093866;28;20585;-75
2021/08/29 02:05:12;;;;;;;3.13;2.80;;;15.20;99.90;;;;;;5093915;28;20667;-75
2021/08/29 02:07:42;;;;;;;3.67;3.05;;;15.20;99.90;;;;;;5093971;28;20210;-75
2021/08/29 02:10:12;;;;;;;3.08;2.67;;;15.10;99.90;;;;;;5094016;28;20211;-75
2021/08/29 02:12:43;;;;;;;3.60;3.30;;;15.10;99.90;;;;;;5093847;28;20584;-75
2021/08/29 02:15:16;;;;;;;4.28;3.00;;;15.10;99.90;;;;;;5093003;28;20197;-75
2021/08/29 02:17:43;;;;;;;4.43;3.13;;;15.00;99.90;;;;;;5093750;28;20203;-75
2021/08/29 02:20:17;;;;;;;3.65;2.80;;;15.00;99.90;;;;;;5093930;28;20312;-75
2021/08/29 02:22:44;;;;;;;3.28;2.95;;;14.90;99.90;;;;;;5093841;28;20258;-75
2021/08/29 02:25:12;;;;;;;2.60;2.40;;;14.90;99.90;;;;;;5093220;28;20207;-75
2021/08/29 02:27:41;;;;;;;3.92;3.10;;;14.90;99.90;;;;;;5093711;28;20225;-75
2021/08/29 02:30:09;;;;;;;3.58;3.22;;;14.90;99.90;;;;;;5093703;28;20603;-75
2021/08/29 02:32:38;;;;;;;3.50;2.83;;;15.00;99.90;;;;;;5093889;28;20308;-75
2021/08/29 02:35:06;;;;;;;4.40;3.10;;;15.00;99.90;;;;;;5093540;28;20208;-74
2021/08/29 02:37:35;;;;;;;4.32;3.00;;;15.00;99.90;;;;;;5094162;28;20311;-75
2021/08/29 02:40:03;;;;;;;3.50;2.63;;;15.00;99.90;;;;;;5093530;28;20324;-75
2021/08/29 02:42:31;;;;;;;3.00;2.70;;;15.00;99.90;;;;;;5093457;28;20602;-75
2021/08/29 02:45:00;;;;;;;4.10;3.33;;;14.90;99.90;;;;;;5093408;28;20302;-74
2021/08/29 02:47:28;;;;;;;3.80;2.97;;;15.00;99.90;;;;;;5093518;28;20195;-75
2021/08/29 02:49:55;;;;;;;3.13;2.80;;;14.90;99.90;;;;;;5093250;28;20240;-75
2021/08/29 02:52:22;;;;;;;3.83;2.63;;;14.90;99.90;;;;;;5093585;28;20224;-75
2021/08/29 02:54:51;;;;;;;3.20;2.80;;;14.90;99.90;;;;;;5093106;28;20198;-75
2021/08/29 02:57:20;;;;;;;4.00;3.00;;;14.90;99.90;;;;;;5093381;28;20226;-75
2021/08/29 02:59:48;;;;;;;3.28;2.97;;;14.80;99.90;;;;;;5093447;28;20199;-75
2021/08/29 03:02:15;;;;;;;4.43;3.22;;;14.80;99.90;;;;;;5093308;28;20223;-75
2021/08/29 03:04:42;;;;;;;4.22;3.10;;;14.80;99.90;;;;;;5093129;28;20634;-73
2021/08/29 03:07:09;;;;;;;3.55;3.00;;;14.80;99.90;;;;;;5093310;28;20557;-75
2021/08/29 03:09:36;;;;;;;3.78;2.60;;;14.80;99.90;;;;;;5093334;28;20200;-75
2021/08/29 03:12:08;;;;;;;3.08;2.88;;;14.90;99.90;;;;;;5093222;28;20238;-74
2021/08/29 03:14:36;;;;;;;4.07;3.05;;;14.90;99.90;;;;;;5093638;28;20184;-75
2021/08/29 03:17:03;;;;;;;4.13;3.35;;;15.00;99.90;;;;;;5093006;28;20232;-75
2021/08/29 03:19:31;;;;;;;3.80;3.20;;;15.00;99.90;;;;;;5093194;28;20208;-75
2021/08/29 03:21:58;;;;;;;5.63;4.28;;;15.00;99.90;;;;;;5093589;28;20295;-75
2021/08/29 03:24:25;;;;;;;3.30;3.00;;;15.00;99.90;;;;;;5093264;28;20205;-75
2021/08/29 03:26:52;;;;;;;5.13;3.22;;;15.00;99.90;;;;;;5093729;28;20574;-75
2021/08/29 03:29:20;;;;;;;3.22;2.65;;;15.00;99.90;;;;;;5096734;28;20200;-75
2021/08/29 03:31:47;;;;;;;3.58;3.20;;;15.00;99.90;;;;;;5096876;28;20207;-75
2021/08/29 03:34:17;;;;;;;4.47;2.90;;;14.90;99.90;;;;;;5096782;28;20738;-75
2021/08/29 03:36:45;;;;;;;3.55;2.92;;;14.90;99.90;;;;;;5096747;28;20328;-75
2021/08/29 03:39:12;;;;;;;3.30;2.65;;;14.90;99.90;;;;;;5096740;28;20579;-75
2021/08/29 03:41:41;;;;;;;3.05;2.70;;;14.90;99.90;;;;;;5096611;28;20580;-75
2021/08/29 03:44:11;;;;;;;3.92;2.80;;;14.90;99.90;;;;;;5096320;28;20708;-75
2021/08/29 03:46:40;;;;;;;2.83;2.47;;;14.90;99.90;;;;;;5096132;28;20202;-75
2021/08/29 03:49:07;;;;;;;2.83;2.55;;;14.90;99.90;;;;;;5096775;28;20234;-75
2021/08/29 03:51:37;;;;;;;4.05;3.08;;;14.90;99.90;;;;;;5096474;28;20294;-75
2021/08/29 03:54:06;;;;;;;4.18;3.10;;;14.90;99.90;;;;;;5096429;28;20231;-75
2021/08/29 03:56:35;;;;;;;3.63;2.88;;;14.90;99.90;;;;;;5096135;28;20226;-75
2021/08/29 03:59:03;;;;;;;4.35;3.70;;;14.90;99.90;;;;;;5096313;28;20212;-75
2021/08/29 04:01:30;;;;;;;3.85;3.00;;;14.80;99.90;;;;;;5096019;28;20206;-76
2021/08/29 04:03:58;;;;;;;4.32;3.40;;;14.70;99.90;;;;;;5095943;28;20701;-75
2021/08/29 04:06:26;;;;;;;4.45;3.47;;;14.60;99.90;;;;;;5096062;28;20535;-75
2021/08/29 04:08:56;;;;;;;3.63;2.85;;;14.60;99.90;;;;;;5096167;28;20205;-75
2021/08/29 04:11:24;;;;;;;3.95;3.55;;;14.50;99.90;;;;;;5096098;28;20199;-75
2021/08/29 04:13:52;;;;;;;4.00;3.10;;;14.50;99.90;;;;;;5095918;28;20231;-75
2021/08/29 04:16:20;;;;;;;4.13;3.65;;;14.40;99.90;;;;;;5096022;28;20229;-75
2021/08/29 04:18:48;;;;;;;3.95;3.15;;;14.40;99.90;;;;;;5096227;28;20206;-75
2021/08/29 04:21:18;;;;;;;4.50;3.58;;;14.50;99.90;;;;;;5095915;28;20626;-75
2021/08/29 04:23:45;;;;;;;4.78;3.70;;;14.40;99.90;;;;;;5096061;28;20589;-75
2021/08/29 04:26:13;;;;;;;4.07;3.08;;;14.30;99.90;;;;;;5095386;28;20286;-75
2021/08/29 04:28:40;;;;;;;3.83;3.45;;;14.30;99.90;;;;;;5095783;28;20234;-75
2021/08/29 04:31:10;;;;;;;5.28;4.03;;;14.40;99.90;;;;;;5095514;28;20213;-75
2021/08/29 04:33:36;;;;;;;4.55;3.67;;;14.40;99.90;;;;;;5095661;28;20313;-75
2021/08/29 04:36:04;;;;;;;5.30;3.30;;;14.40;99.90;;;;;;5095475;28;20633;-75
2021/08/29 04:38:33;;;;;;;3.90;3.10;;;14.30;99.90;;;;;;5094494;28;20240;-75
2021/08/29 04:40:59;;;;;;;3.85;3.50;;;14.40;99.90;;;;;;5095424;28;20302;-75
2021/08/29 04:43:26;;;;;;;3.58;3.28;;;14.40;99.90;;;;;;5095513;28;20258;-75
2021/08/29 04:45:53;;;;;;;3.40;3.10;;;14.50;99.90;;;;;;5095257;28;20250;-75
2021/08/29 04:48:20;;;;;;;3.72;3.00;;;14.50;99.90;;;;;;5095278;28;20290;-75
2021/08/29 04:50:47;;;;;;;3.40;3.08;;;14.50;99.90;;;;;;5095361;28;20204;-75
2021/08/29 04:53:14;;;;;;;3.00;2.72;;;14.50;99.90;;;;;;5095012;28;20219;-75
2021/08/29 04:55:42;;;;;;;3.40;2.72;;;14.50;99.90;;;;;;5095074;28;20241;-75
2021/08/29 04:58:09;;;;;;;3.13;2.80;;;14.60;99.90;;;;;;5095117;28;20229;-75
2021/08/29 05:00:37;;;;;;;4.78;3.72;;;14.60;99.90;;;;;;5095139;28;20199;-75
2021/08/29 05:03:03;;;;;;;5.35;2.75;;;14.60;99.90;;;;;;5095437;28;20571;-75
2021/08/29 05:05:30;;;;;;;4.45;3.40;;;14.60;99.90;;;;;;5094657;28;20295;-75
2021/08/29 05:07:57;;;;;;;3.40;2.60;;;14.70;99.90;;;;;;5094711;28;20199;-75
2021/08/29 05:10:24;;;;;;;3.20;2.75;;;14.60;99.90;;;;;;5094721;28;20293;-75
2021/08/29 05:12:53;;;;;;;3.40;2.75;;;14.50;99.90;;;;;;5094705;28;20567;-75
2021/08/29 05:15:20;;;;;;;2.55;2.35;;;14.60;99.90;;;;;;5094486;28;20211;-75
2021/08/29 05:17:46;;;;;;;4.15;3.72;;;14.50;99.90;;;;;;5094656;28;20309;-75
2021/08/29 05:20:14;;;;;;;4.90;3.80;;;14.60;99.90;;;;;;5094680;28;20211;-76
2021/08/29 05:22:40;;;;;;;4.40;3.50;;;14.70;99.90;;;;;;5094621;28;20312;-75
2021/08/29 05:25:08;;;;;;;3.90;3.42;;;14.60;99.90;;;;;;5094468;28;20297;-75
2021/08/29 05:27:35;;;;;;;6.53;4.10;;;14.50;99.90;;;;;;5094601;28;20290;-75
2021/08/29 05:30:04;;;;;;;11.57;7.15;;;14.50;99.90;;;;;;5094465;28;20759;-75
2021/08/29 05:32:31;;;;;;;4.70;3.92;;;14.60;99.90;;;;;;5094411;28;20317;-75
2021/08/29 05:34:58;;;;;;;5.30;3.70;;;14.70;99.90;;;;;;5094385;28;20198;-75
2021/08/29 05:37:24;;;;;;;4.35;3.45;;;14.60;99.90;;;;;;5094683;28;20234;-75
2021/08/29 05:39:51;;;;;;;3.75;3.45;;;14.60;99.90;;;;;;5094440;28;20293;-75
2021/08/29 05:42:18;;;;;;;3.95;3.25;;;14.50;99.90;;;;;;5094283;28;20236;-75
2021/08/29 05:44:45;;;;;;;3.50;3.20;;;14.50;99.90;;;;;;5093948;28;20298;-75
2021/08/29 05:47:13;;;;;;;3.80;2.55;;;14.50;99.90;;;;;;5094217;28;20233;-75
2021/08/29 05:49:40;;;;;;;3.40;3.10;;;14.40;99.90;;;;;;5093986;28;20293;-75
2021/08/29 05:52:08;;;;;;;3.55;2.70;;;14.40;99.90;;;;;;5094170;28;20202;-75
2021/08/29 05:54:34;;;;;;;2.83;2.55;;;14.40;99.90;;;;;;5094236;28;20209;-75
2021/08/29 05:57:01;;;;;;;3.10;2.80;;;14.30;99.90;;;;;;5093893;28;20310;-75
2021/08/29 05:59:28;;;;;;;3.45;3.15;;;14.30;99.90;;;;;;5094244;28;20294;-76
2021/08/29 06:01:55;;;;;;;4.70;3.40;;;14.30;99.90;;;;;;5093968;28;20204;-76
2021/08/29 06:04:23;;;;;;;3.92;3.10;;;14.20;99.90;;;;;;5093759;28;20199;-76
2021/08/29 06:06:50;;;;;;;3.97;3.15;;;14.20;99.90;;;;;;5093838;28;20206;-76
2021/08/29 06:09:17;;;;;;;6.25;5.10;;;14.20;99.90;;;;;;5093973;28;20291;-76
2021/08/29 06:11:43;;;;;;;3.72;3.42;;;14.20;99.90;;;;;;5093921;28;20208;-76
2021/08/29 06:14:10;;;;;;;5.65;4.43;;;14.10;99.90;;;;;;5093856;28;20226;-76
2021/08/29 06:16:37;;;;;;;4.13;3.72;;;14.30;99.90;;;;;;5093297;28;20293;-76
2021/08/29 06:19:04;;;;;;;4.95;4.00;;;14.30;99.90;;;;;;5093654;28;20663;-76
2021/08/29 06:21:32;;;;;;;4.68;4.18;;;14.40;99.90;;;;;;5093777;28;20203;-76
2021/08/29 06:23:59;;;;;;;4.18;3.22;;;14.50;99.90;;;;;;5093719;28;20223;-76
2021/08/29 06:26:26;;;;;;;4.15;3.72;;;14.30;99.90;;;;;;5093569;28;20202;-76
2021/08/29 06:28:53;;;;;;;3.55;2.80;;;14.30;99.90;;;;;;5093729;28;20198;-76
2021/08/29 06:31:19;;;;;;;2.95;2.75;;;14.40;99.90;;;;;;5093585;28;20214;-76
2021/08/29 06:33:46;;;;;;;3.40;3.10;;;14.40;99.90;;;;;;5093684;28;20314;-76
2021/08/29 06:36:13;;;;;;;2.80;2.30;;;14.50;99.90;;;;;;5093496;28;20198;-76
2021/08/29 06:38:41;;;;;;;2.67;2.28;;;14.60;99.90;;;;;;5093547;28;20245;-76
2021/08/29 06:41:08;;;;;;;2.22;2.00;;;14.60;99.90;;;;;;5093443;28;20633;-76
2021/08/29 06:43:35;;;;;;;2.60;2.40;;;14.60;99.90;;;;;;5093290;28;20222;-76
2021/08/29 06:46:02;;;;;;;16.95;10.60;;;14.60;99.90;;;;;;5093397;28;20235;-76
2021/08/29 06:48:29;;;;;;;4.88;3.85;;;14.60;99.90;;;;;;5093333;28;20679;-76
2021/08/29 06:50:56;;;;;;;2.45;2.25;;;14.70;99.90;;;;;;5093588;28;20687;-76
2021/08/29 06:53:22;;;;;;;3.20;1.90;;;14.70;99.90;;;;;;5093698;28;20314;-76
2021/08/29 06:55:50;;;;;;;1.90;1.70;;;14.80;99.90;;;;;;5093199;28;20569;-76
2021/08/29 06:58:17;;;;;;;1.75;1.65;;;14.80;99.90;;;;;;5093277;28;20227;-76
2021/08/29 07:00:44;;;;;;;2.10;1.90;;;14.80;99.90;;;;;;5093451;28;20207;-76
2021/08/29 07:03:11;;;;;;;1.88;1.73;;;14.80;99.90;;;;;;5096077;28;20768;-76
2021/08/29 07:05:38;;;;;;;2.10;1.90;;;14.80;99.90;;;;;;5097141;28;20208;-76
2021/08/29 07:08:05;;;;;;;1.75;1.60;;;14.90;99.90;;;;;;5097235;28;20203;-76
2021/08/29 07:10:32;;;;;;;1.75;1.65;;;14.70;99.90;;;;;;5097278;28;20240;-76
2021/08/29 07:13:00;;;;;;;1.60;1.50;;;14.70;99.90;;;;;;5097143;28;20258;-76
2021/08/29 07:15:27;;;;;;;1.67;1.50;;;14.70;99.90;;;;;;5097013;28;20285;-76
2021/08/29 07:17:54;;;;;;;1.80;1.70;;;14.70;99.90;;;;;;5097098;28;20262;-76
2021/08/29 07:20:20;;;;;;;1.45;1.27;;;14.60;99.90;;;;;;5097093;28;20206;-76
2021/08/29 07:22:47;;;;;;;1.40;1.30;;;14.60;99.90;;;;;;5096892;28;20255;-76
2021/08/29 07:25:14;;;;;;;1.10;1.10;;;14.50;99.90;;;;;;5096924;28;20207;-75
2021/08/29 07:27:41;;;;;;;1.52;1.42;;;14.40;99.90;;;;;;5096944;28;20732;-76
2021/08/29 07:30:10;;;;;;;1.27;1.17;;;14.30;99.90;;;;;;5096959;28;20301;-76
2021/08/29 07:32:37;;;;;;;3.55;1.40;;;14.40;99.90;;;;;;5097098;28;20306;-76
2021/08/29 07:35:05;;;;;;;1.80;1.50;;;14.40;99.90;;;;;;5096730;28;20297;-76
2021/08/29 07:37:32;;;;;;;1.50;1.40;;;14.40;99.90;;;;;;5096655;28;20307;-76
2021/08/29 07:39:58;;;;;;;1.30;1.23;;;14.40;99.90;;;;;;5096713;28;20305;-76
2021/08/29 07:42:25;;;;;;;1.50;1.40;;;14.40;99.90;;;;;;5096399;28;20242;-76
2021/08/29 07:44:52;;;;;;;1.30;1.20;;;14.50;99.90;;;;;;5096527;28;20207;-76
2021/08/29 07:47:20;;;;;;;0.93;0.93;;;14.50;99.90;;;;;;5096909;28;20286;-76
2021/08/29 07:49:47;;;;;;;1.10;1.10;;;14.60;99.90;;;;;;5096375;28;20200;-76
2021/08/29 07:52:14;;;;;;;1.60;1.50;;;14.50;99.90;;;;;;5096448;28;20254;-76
2021/08/29 07:54:41;;;;;;;1.23;1.13;;;14.50;99.90;;;;;;5096463;28;20624;-76
2021/08/29 07:57:07;;;;;;;1.70;1.60;;;14.60;99.90;;;;;;5096213;28;20199;-76
2021/08/29 07:59:34;;;;;;;3.10;2.40;;;14.60;99.90;;;;;;5096184;28;20757;-76
2021/08/29 08:02:01;;;;;;;1.30;1.20;;;14.50;99.90;;;;;;5096106;28;20752;-76
2021/08/29 08:04:29;;;;;;;1.55;1.45;;;14.50;99.90;;;;;;5096331;28;20238;-76
2021/08/29 08:06:56;;;;;;;2.33;2.00;;;14.40;99.90;;;;;;5096023;28;20301;-76
2021/08/29 08:09:23;;;;;;;1.85;1.10;;;14.40;99.90;;;;;;5095899;28;20293;-76
2021/08/29 08:11:50;;;;;;;1.35;1.20;;;14.50;99.90;;;;;;5096178;28;20209;-76
2021/08/29 08:14:17;;;;;;;1.30;1.20;;;14.50;99.90;;;;;;5096089;28;20290;-76
2021/08/29 08:16:43;;;;;;;1.00;1.00;;;14.60;99.90;;;;;;5095899;28;20229;-76
2021/08/29 08:19:10;;;;;;;2.03;1.60;;;14.60;99.90;;;;;;5095967;28;20232;-76
2021/08/29 08:21:38;;;;;;;1.15;1.15;;;14.70;99.90;;;;;;5095905;28;20564;-76
2021/08/29 08:24:06;;;;;;;0.90;0.90;;;14.80;99.90;;;;;;5096717;28;20226;-76
2021/08/29 08:26:33;;;;;;;1.20;1.10;;;14.90;99.90;;;;;;5095612;28;20294;-76
2021/08/29 08:29:00;;;;;;;0.85;0.85;;;14.90;99.90;;;;;;5095838;28;20206;-76
2021/08/29 08:31:26;;;;;;;1.00;1.00;;;15.10;99.90;;;;;;5095574;28;20294;-76
2021/08/29 08:33:53;;;;;;;1.17;1.08;;;15.20;99.90;;;;;;5095736;28;20224;-76
2021/08/29 08:36:20;;;;;;;1.25;1.10;;;15.30;99.90;;;;;;5095188;28;20288;-77
2021/08/29 08:38:48;;;;;;;1.10;1.00;;;15.40;99.90;;;;;;5095306;28;20780;-76
2021/08/29 08:41:15;;;;;;;1.20;1.10;;;15.30;99.90;;;;;;5095287;28;20302;-76
2021/08/29 08:43:42;;;;;;;1.33;1.13;;;15.40;99.90;;;;;;5095234;28;20234;-76
2021/08/29 08:46:11;;;;;;;1.15;1.05;;;15.40;99.90;;;;;;5095444;28;20215;-76
2021/08/29 08:48:39;;;;;;;1.13;1.05;;;15.50;99.90;;;;;;5095386;28;20199;-76
2021/08/29 08:51:08;;;;;;;3.20;2.30;;;15.40;99.90;;;;;;5095355;28;20290;-76
2021/08/29 08:53:37;;;;;;;0.93;0.93;;;15.50;99.90;;;;;;5095296;28;20227;-76
2021/08/29 08:56:05;;;;;;;1.15;1.05;;;15.40;99.90;;;;;;5095144;28;20218;-76
2021/08/29 08:58:39;;;;;;;3.42;2.13;;;15.40;99.90;;;;;;5095144;28;20315;-76
2021/08/29 09:01:06;;;;;;;1.67;1.58;;;15.40;99.90;;;;;;5095206;28;20227;-76
2021/08/29 09:03:34;;;;;;;1.88;1.25;;;15.30;99.90;;;;;;5094878;28;20227;-76
2021/08/29 09:06:03;;;;;;;1.35;1.20;;;15.40;99.90;;;;;;5094711;28;20211;-76
2021/08/29 09:08:30;;;;;;;1.60;1.40;;;15.40;99.90;;;;;;5095026;28;20299;-76
2021/08/29 09:10:57;;;;;;;1.88;1.23;;;15.50;99.90;;;;;;5095042;28;20685;-77
2021/08/29 09:13:25;;;;;;;1.90;0.98;;;15.60;99.90;;;;;;5094884;28;20220;-76
2021/08/29 09:16:12;;;;;;;2.78;1.27;;;15.70;99.90;;;;;;5094724;28;20205;-76
2021/08/29 09:18:47;;;;;;;1.20;1.10;;;15.70;99.90;;;;;;5094840;28;20578;-76
2021/08/29 09:21:19;;;;;;;1.08;1.00;;;15.70;99.90;;;;;;5094735;28;20200;-76
2021/08/29 09:23:46;;;;;;;1.30;1.25;;;15.80;99.90;;;;;;5094464;28;20753;-76
2021/08/29 09:26:14;;;;;;;1.60;1.00;;;15.80;99.90;;;;;;5093834;28;20630;-76
2021/08/29 09:28:42;;;;;;;0.88;0.88;;;15.80;99.90;;;;;;5094655;28;20562;-76
2021/08/29 09:31:09;;;;;;;0.77;0.77;;;15.90;99.90;;;;;;5094898;28;20296;-76
2021/08/29 09:33:36;;;;;;;0.60;0.60;;;16.00;99.90;;;;;;5094598;28;20320;-76
2021/08/29 09:36:03;;;;;;;0.70;0.70;;;16.00;99.90;;;;;;5094254;28;20295;-76
2021/08/29 09:38:38;;;;;;;0.85;0.70;;;16.10;99.90;;;;;;5094435;28;20225;-76
2021/08/29 09:41:20;;;;;;;0.60;0.60;;;16.10;99.90;;;;;;5094572;28;20216;-76
2021/08/29 09:43:48;;;;;;;0.77;0.77;;;16.20;99.90;;;;;;5094679;28;20225;-76
2021/08/29 09:46:15;;;;;;;0.65;0.65;;;16.20;99.90;;;;;;5094209;28;20223;-76
2021/08/29 09:48:47;;;;;;;1.02;0.93;;;16.10;99.90;;;;;;5094346;28;20201;-76
2021/08/29 09:51:15;;;;;;;0.60;0.60;;;16.10;99.90;;;;;;5094268;28;20209;-76
2021/08/29 09:53:44;;;;;;;0.57;0.57;;;16.20;99.90;;;;;;5093900;28;20722;-76
2021/08/29 09:56:22;;;;;;;0.60;0.60;;;16.30;99.90;;;;;;5094050;28;20202;-76
2021/08/29 09:58:52;;;;;;;0.68;0.68;;;16.30;99.90;;;;;;5094116;28;20579;-76
2021/08/29 10:01:20;;;;;;;0.70;0.68;;;16.40;99.90;;;;;;5094148;28;20563;-76
2021/08/29 10:03:48;;;;;;;0.70;0.70;;;16.40;99.90;;;;;;5093993;28;20245;-77
2021/08/29 10:06:20;;;;;;;0.60;0.60;;;16.30;99.90;;;;;;5093657;28;20216;-76
2021/08/29 10:08:48;;;;;;;0.65;0.50;;;16.20;99.90;;;;;;5094010;28;20202;-76
2021/08/29 10:11:16;;;;;;;0.80;0.52;;;16.30;99.90;;;;;;5093972;28;20283;-77
2021/08/29 10:13:43;;;;;;;0.70;0.70;;;16.20;99.90;;;;;;5093933;28;20221;-76
2021/08/29 10:16:13;;;;;;;0.70;0.70;;;16.30;99.90;;;;;;5093552;28;20201;-76
2021/08/29 10:18:42;;;;;;;0.68;0.68;;;16.20;99.90;;;;;;5093828;28;20337;-76
2021/08/29 10:21:12;;;;;;;0.60;0.60;;;16.20;99.90;;;;;;5094088;28;20228;-77
2021/08/29 10:23:40;;;;;;;0.65;0.65;;;16.10;99.90;;;;;;5094076;28;20233;-76
2021/08/29 10:26:08;;;;;;;1.30;1.20;;;15.90;99.90;;;;;;5093324;28;20304;-76
2021/08/29 10:28:39;;;;;;;0.90;0.90;;;15.90;99.90;;;;;;5093695;28;20204;-76
2021/08/29 10:31:06;;;;;;;1.00;1.00;;;15.80;99.90;;;;;;5093719;28;20208;-76
2021/08/29 10:33:35;;;;;;;1.30;1.20;;;15.80;99.90;;;;;;5093802;28;20225;-76
2021/08/29 10:36:02;;;;;;;3.97;3.00;;;15.80;99.90;;;;;;5093521;28;20208;-76
2021/08/29 10:38:30;;;;;;;2.45;1.95;;;15.90;99.90;;;;;;5097304;28;20231;-76
2021/08/29 10:40:58;;;;;;;9.43;3.40;;;15.80;99.90;;;;;;5097742;28;20615;-77
2021/08/29 10:43:28;;;;;;;5.25;2.40;;;15.80;99.90;;;;;;5097521;28;20225;-76
2021/08/29 10:45:56;;;;;;;6.40;2.50;;;15.80;99.90;;;;;;5097432;28;20214;-76
2021/08/29 10:48:23;;;;;;;3.00;2.13;;;15.70;99.90;;;;;;5097959;28;20220;-76
2021/08/29 10:50:52;;;;;;;2.25;2.05;;;15.90;99.90;;;;;;5097582;28;20682;-76
2021/08/29 10:53:31;;;;;;;2.80;2.15;;;16.00;99.90;;;;;;5097614;28;20583;-76
2021/08/29 10:56:32;;;;;;;3.63;3.00;;;16.00;99.90;;;;;;5097455;28;20198;-76
2021/08/29 10:59:35;;;;;;;4.25;3.38;;;16.10;99.90;;;;;;5097485;28;20633;-76
2021/08/29 11:02:13;;;;;;;4.07;3.10;;;16.20;99.90;;;;;;5097455;28;20214;-76
2021/08/29 11:04:50;;;;;;;3.47;2.95;;;16.10;99.90;;;;;;5097411;28;20215;-76
2021/08/29 11:07:47;;;;;;;3.65;3.20;;;16.10;99.90;;;;;;5097366;28;20208;-76
2021/08/29 11:10:42;;;;;;;4.15;2.95;;;16.00;99.90;;;;;;5097385;28;20208;-76
2021/08/29 11:13:35;;;;;;;4.30;3.40;;;16.00;99.90;;;;;;5097284;28;20232;-76
2021/08/29 11:16:24;;;;;;;3.80;3.17;;;16.10;99.90;;;;;;5096828;28;20245;-76
2021/08/29 11:19:14;;;;;;;4.05;3.28;;;16.10;99.90;;;;;;5092561;28;20224;-76
2021/08/29 11:22:13;;;;;;;3.78;3.42;;;16.10;99.90;;;;;;5097174;28;20291;-76
2021/08/29 11:24:59;;;;;;;3.22;2.75;;;16.20;99.90;;;;;;5097154;28;20204;-76
2021/08/29 11:28:04;;;;;;;3.85;3.20;;;16.30;99.90;;;;;;5097740;28;20212;-76
2021/08/29 11:30:45;;;;;;;4.15;3.20;;;16.40;99.90;;;;;;5096961;28;20292;-76
2021/08/29 11:33:14;;;;;;;4.68;3.25;;;16.30;99.90;;;;;;5096846;28;20333;-77
2021/08/29 11:35:49;;;;;;;4.38;3.88;;;16.40;99.90;;;;;;5096716;28;20206;-77
2021/08/29 11:38:20;;;;;;;3.50;2.97;;;16.50;99.90;;;;;;5096737;28;20216;-76
2021/08/29 11:41:11;;;;;;;3.55;3.25;;;16.60;99.90;;;;;;5096674;28;20206;-77
2021/08/29 11:43:42;;;;;;;4.35;3.70;;;16.60;99.90;;;;;;5096460;28;20311;-76
2021/08/29 11:46:14;;;;;;;3.70;3.40;;;16.60;99.90;;;;;;5096550;28;20227;-76
2021/08/29 11:48:52;;;;;;;3.72;3.40;;;16.60;99.90;;;;;;5096231;28;20230;-77
2021/08/29 11:51:27;;;;;;;3.60;3.05;;;16.90;99.90;;;;;;5096431;28;20205;-76
2021/08/29 11:53:54;;;;;;;3.55;3.25;;;17.00;99.90;;;;;;5096205;28;20734;-77
2021/08/29 11:56:28;;;;;;;3.50;3.20;;;17.00;99.90;;;;;;5096043;28;20291;-77
2021/08/29 11:58:55;;;;;;;3.08;2.78;;;17.10;99.90;;;;;;5096173;28;20316;-77
2021/08/29 12:01:22;;;;;;;3.55;2.85;;;17.10;99.90;;;;;;5096514;28;20208;-77
2021/08/29 12:03:50;;;;;;;3.20;2.90;;;16.90;99.90;;;;;;5096295;28;20230;-76
2021/08/29 12:06:22;;;;;;;3.63;3.35;;;16.80;99.90;;;;;;5095944;28;20303;-76
2021/08/29 12:09:04;;;;;;;2.88;2.60;;;16.60;99.90;;;;;;5096192;28;20207;-76
2021/08/29 12:11:35;;;;;;;3.35;2.80;;;16.40;99.90;;;;;;5096029;28;20212;-76
2021/08/29 12:14:15;;;;;;;2.30;2.10;;;16.40;99.90;;;;;;5096150;28;20225;-76
2021/08/29 12:16:50;;;;;;;2.42;2.10;;;16.30;99.90;;;;;;5095970;28;20299;-76
2021/08/29 12:19:20;;;;;;;2.65;2.30;;;16.30;99.90;;;;;;5095934;28;20239;-76
2021/08/29 12:21:48;;;;;;;3.70;3.03;;;16.30;99.90;;;;;;5096107;28;20201;-76
2021/08/29 12:24:16;;;;;;;4.15;3.10;;;16.30;99.90;;;;;;5095927;28;20226;-76
2021/08/29 12:26:44;;;;;;;3.67;3.05;;;16.30;99.90;;;;;;5095883;28;20205;-76
2021/08/29 12:29:12;;;;;;;3.53;2.50;;;16.30;99.90;;;;;;5095869;28;20233;-76
2021/08/29 12:31:41;;;;;;;2.45;2.25;;;16.30;99.90;;;;;;5095681;28;20211;-76
2021/08/29 12:34:08;;;;;;;2.70;2.50;;;16.30;99.90;;;;;;5095897;28;20320;-76
2021/08/29 12:36:36;;;;;;;3.40;3.10;;;16.30;99.90;;;;;;5095514;28;20296;-76
2021/08/29 12:39:10;;;;;;;4.00;3.60;;;16.30;99.90;;;;;;5095447;28;20296;-76
2021/08/29 12:41:38;;;;;;;3.95;3.42;;;16.30;99.90;;;;;;5095490;28;20223;-76
2021/08/29 12:44:07;;;;;;;3.38;3.05;;;16.10;99.90;;;;;;5095415;28;20225;-76
2021/08/29 12:46:34;;;;;;;3.88;3.17;;;16.00;99.90;;;;;;5095332;28;20219;-76
2021/08/29 12:49:01;;;;;;;10.23;7.00;;;16.10;99.90;;;;;;5095452;28;20296;-75
2021/08/29 12:51:29;;;;;;;3.85;2.80;;;16.10;99.90;;;;;;5095661;28;20212;-76
2021/08/29 12:54:00;;;;;;;3.33;2.55;;;16.10;99.90;;;;;;5095035;28;20231;-76
2021/08/29 12:56:27;;;;;;;3.05;2.80;;;16.10;99.90;;;;;;5094927;28;20205;-76